createdAt,value
2024-02-08T00:00:23.229Z,1.67
2024-02-08T00:02:50.228Z,1.68
2024-02-08T00:05:16.846Z,1.72
2024-02-08T00:07:43.459Z,1.71
2024-02-08T00:10:10.357Z,1.67
2024-02-08T00:12:41.236Z,1.62
2024-02-08T00:15:08.470Z,1.58
2024-02-08T00:17:35.062Z,1.60
2024-02-08T00:20:01.618Z,1.59
2024-02-08T00:22:28.268Z,1.61
2024-02-08T00:24:57.389Z,1.61
2024-02-08T00:27:23.877Z,1.61
2024-02-08T00:29:50.302Z,1.61
2024-02-08T00:32:16.838Z,1.63
2024-02-08T00:34:43.709Z,1.64
2024-02-08T00:37:10.656Z,1.66
2024-02-08T00:39:43.423Z,1.63
2024-02-08T00:42:12.518Z,1.65
2024-02-08T00:44:42.560Z,1.66
2024-02-08T00:47:10.267Z,1.63
2024-02-08T00:49:37.080Z,1.65
2024-02-08T00:52:03.720Z,1.68
2024-02-08T00:54:30.151Z,1.72
2024-02-08T00:56:57.011Z,1.69
2024-02-08T00:59:23.853Z,1.68
2024-02-08T01:01:50.416Z,1.66
2024-02-08T01:04:16.880Z,1.71
2024-02-08T01:06:43.539Z,1.71
2024-02-08T01:09:10.026Z,1.72
2024-02-08T01:11:36.645Z,1.73
2024-02-08T01:14:03.482Z,1.74
2024-02-08T01:16:34.401Z,1.73
2024-02-08T01:19:01.336Z,1.66
2024-02-08T01:21:27.882Z,1.63
2024-02-08T01:23:54.302Z,1.58
2024-02-08T01:26:20.714Z,1.59
2024-02-08T01:28:47.298Z,1.63
2024-02-08T01:31:15.376Z,1.64
2024-02-08T01:33:43.371Z,1.64
2024-02-08T01:36:11.846Z,1.65
2024-02-08T01:38:38.321Z,1.67
2024-02-08T01:41:07.407Z,1.72
2024-02-08T01:43:35.321Z,1.75
2024-02-08T01:46:03.302Z,1.77
2024-02-08T01:48:30.867Z,1.77
2024-02-08T01:51:02.449Z,1.77
2024-02-08T01:53:30.448Z,1.75
2024-02-08T01:56:01.067Z,1.72
2024-02-08T01:58:29.022Z,1.74
2024-02-08T02:00:57.383Z,1.73
2024-02-08T02:03:26.649Z,1.76
2024-02-08T02:05:53.430Z,1.72
2024-02-08T02:08:23.612Z,1.65
2024-02-08T02:11:01.553Z,1.62
2024-02-08T02:13:29.420Z,1.65
2024-02-08T02:15:55.906Z,1.72
2024-02-08T02:18:22.495Z,1.69
2024-02-08T02:20:49.013Z,1.69
2024-02-08T02:23:19.744Z,1.68
2024-02-08T02:25:49.619Z,1.71
2024-02-08T02:28:17.800Z,1.73
2024-02-08T02:30:46.188Z,1.79
2024-02-08T02:33:17.373Z,1.84
2024-02-08T02:35:49.436Z,1.88
2024-02-08T02:38:18.844Z,1.91
2024-02-08T02:40:47.484Z,1.88
2024-02-08T02:43:15.076Z,1.85
2024-02-08T02:45:42.138Z,1.86
2024-02-08T02:48:09.504Z,1.84
2024-02-08T02:50:43.310Z,1.77
2024-02-08T02:53:10.592Z,1.74
2024-02-08T02:55:38.555Z,1.75
2024-02-08T02:58:05.962Z,1.72
2024-02-08T03:00:35.606Z,1.71
2024-02-08T03:03:08.747Z,1.74
2024-02-08T03:05:36.558Z,1.77
2024-02-08T03:08:06.751Z,1.78
2024-02-08T03:10:36.075Z,1.72
2024-02-08T03:13:02.619Z,1.69
2024-02-08T03:15:29.125Z,1.72
2024-02-08T03:17:55.569Z,1.74
2024-02-08T03:20:30.771Z,1.80
2024-02-08T03:22:58.574Z,1.83
2024-02-08T03:25:25.775Z,1.84
2024-02-08T03:27:53.077Z,1.80
2024-02-08T03:30:21.603Z,1.83
2024-02-08T03:32:52.042Z,1.85
2024-02-08T03:35:26.954Z,1.82
2024-02-08T03:37:57.258Z,1.83
2024-02-08T03:40:27.280Z,1.86
2024-02-08T03:42:54.810Z,1.84
2024-02-08T03:45:31.038Z,1.83
2024-02-08T03:48:02.218Z,1.81
2024-02-08T03:50:36.292Z,1.82
2024-02-08T03:53:06.321Z,1.84
2024-02-08T03:55:33.340Z,1.82
2024-02-08T03:58:08.286Z,1.82
2024-02-08T04:00:35.483Z,1.84
2024-02-08T04:03:07.391Z,1.84
2024-02-08T04:06:00.887Z,1.86
2024-02-08T04:08:27.740Z,1.86
2024-02-08T04:10:58.120Z,1.87
2024-02-08T04:13:44.432Z,1.92
2024-02-08T04:16:29.806Z,1.95
2024-02-08T04:19:18.390Z,1.94
2024-02-08T04:22:03.960Z,1.95
2024-02-08T04:24:48.832Z,1.93
2024-02-08T04:27:47.426Z,1.91
2024-02-08T04:30:32.828Z,1.92
2024-02-08T04:33:17.978Z,1.93
2024-02-08T04:36:03.432Z,1.89
2024-02-08T04:38:48.758Z,1.85
2024-02-08T04:41:33.789Z,1.82
2024-02-08T04:44:18.468Z,1.77
2024-02-08T04:47:03.605Z,1.74
2024-02-08T04:49:48.886Z,1.71
2024-02-08T04:52:34.209Z,1.67
2024-02-08T04:55:01.071Z,1.67
2024-02-08T04:57:27.534Z,1.73
2024-02-08T04:59:55.492Z,1.73
2024-02-08T05:02:22.282Z,1.78
2024-02-08T05:04:50.644Z,1.81
2024-02-08T05:07:17.706Z,1.85
2024-02-08T05:09:44.331Z,1.89
2024-02-08T05:12:12.579Z,1.89
2024-02-08T05:14:39.816Z,1.91
2024-02-08T05:17:09.883Z,1.94
2024-02-08T05:19:37.033Z,1.95
2024-02-08T05:22:03.904Z,1.91
2024-02-08T05:24:32.101Z,1.86
2024-02-08T05:26:59.595Z,1.84
2024-02-08T05:29:26.120Z,1.82
2024-02-08T05:31:52.641Z,1.83
2024-02-08T05:34:19.897Z,1.84
2024-02-08T05:36:47.870Z,1.84
2024-02-08T05:39:15.165Z,1.84
2024-02-08T05:41:45.756Z,1.79
2024-02-08T05:44:13.972Z,1.80
2024-02-08T05:46:40.724Z,1.84
2024-02-08T05:49:15.750Z,1.83
2024-02-08T05:51:53.635Z,1.85
2024-02-08T05:54:37.701Z,1.91
2024-02-08T05:57:08.698Z,1.92
2024-02-08T05:59:38.452Z,1.94
2024-02-08T06:02:15.292Z,1.97
2024-02-08T06:04:42.494Z,1.96
2024-02-08T06:07:09.355Z,1.99
2024-02-08T06:09:47.181Z,2.01
2024-02-08T06:12:44.736Z,2.01
2024-02-08T06:15:23.306Z,2.01
2024-02-08T06:17:58.334Z,1.98
2024-02-08T06:20:34.476Z,1.93
2024-02-08T06:23:20.872Z,1.90
2024-02-08T06:26:10.439Z,1.85
2024-02-08T06:29:06.634Z,1.83
2024-02-08T06:31:41.838Z,1.85
2024-02-08T06:34:28.753Z,1.91
2024-02-08T06:37:17.051Z,1.91
2024-02-08T06:39:46.748Z,1.86
2024-02-08T06:42:45.622Z,1.87
2024-02-08T06:45:31.116Z,1.91
2024-02-08T06:48:18.063Z,1.88
2024-02-08T06:51:03.218Z,1.87
2024-02-08T06:53:49.272Z,1.88
2024-02-08T06:56:34.041Z,1.92
2024-02-08T06:59:18.933Z,1.93
2024-02-08T07:02:04.229Z,1.86
2024-02-08T07:04:49.101Z,1.87
2024-02-08T07:07:34.109Z,1.84
2024-02-08T07:10:19.777Z,1.84
2024-02-08T07:13:04.818Z,1.85
2024-02-08T07:15:49.592Z,1.84
2024-02-08T07:18:36.812Z,1.86
2024-02-08T07:21:22.095Z,1.87
2024-02-08T07:24:07.332Z,1.86
2024-02-08T07:26:52.371Z,1.85
2024-02-08T07:29:37.430Z,1.85
2024-02-08T07:32:22.659Z,1.88
2024-02-08T07:35:07.620Z,1.90
2024-02-08T07:37:37.662Z,1.92
2024-02-08T07:40:32.144Z,1.92
2024-02-08T07:43:18.266Z,1.93
2024-02-08T07:45:49.182Z,1.98
2024-02-08T07:48:37.611Z,1.99
2024-02-08T07:51:04.901Z,2.02
2024-02-08T07:53:47.029Z,2.02
2024-02-08T07:56:26.359Z,2.05
2024-02-08T07:59:06.481Z,2.09
2024-02-08T08:01:39.902Z,2.11
2024-02-08T08:04:11.147Z,2.13
2024-02-08T08:06:51.269Z,2.17
2024-02-08T08:09:22.264Z,2.20
2024-02-08T08:11:50.135Z,2.27
2024-02-08T08:14:35.526Z,2.32
2024-02-08T08:17:16.990Z,2.37
2024-02-08T08:19:47.915Z,2.39
2024-02-08T08:22:40.510Z,2.42
2024-02-08T08:25:13.569Z,2.49
2024-02-08T08:28:00.227Z,2.53
2024-02-08T08:30:32.509Z,2.57
2024-02-08T08:33:04.476Z,2.63
2024-02-08T08:35:39.111Z,2.70
2024-02-08T08:38:19.919Z,2.70
2024-02-08T08:40:51.546Z,2.68
2024-02-08T08:43:23.945Z,2.73
2024-02-08T08:45:52.334Z,2.79
2024-02-08T08:48:23.251Z,2.81
2024-02-08T08:50:56.856Z,2.86
2024-02-08T08:53:28.773Z,2.89
2024-02-08T08:55:59.067Z,2.93
2024-02-08T08:58:29.695Z,2.96
2024-02-08T09:01:06.188Z,3.00
2024-02-08T09:03:35.189Z,3.00
2024-02-08T09:06:04.136Z,3.04
2024-02-08T09:08:43.240Z,3.04
2024-02-08T09:11:14.285Z,3.05
2024-02-08T09:16:31.604Z,3.06
2024-02-08T09:19:05.728Z,3.07
2024-02-08T09:21:35.062Z,3.09
2024-02-08T09:24:06.418Z,3.12
2024-02-08T09:26:50.467Z,3.13
2024-02-08T09:29:28.676Z,3.14
2024-02-08T09:31:59.912Z,3.17
2024-02-08T09:34:41.419Z,3.17
2024-02-08T09:37:10.092Z,3.22
2024-02-08T09:39:58.611Z,3.23
2024-02-08T09:42:29.275Z,3.25
2024-02-08T09:45:39.260Z,3.25
2024-02-08T09:48:08.239Z,3.27
2024-02-08T09:50:44.698Z,3.31
2024-02-08T09:53:19.645Z,3.31
2024-02-08T09:55:49.977Z,3.29
2024-02-08T09:58:36.343Z,3.33
2024-02-08T10:01:25.676Z,3.39
2024-02-08T10:04:06.379Z,3.45
2024-02-08T10:06:47.181Z,3.51
2024-02-08T10:09:33.671Z,3.53
2024-02-08T10:12:07.835Z,3.60
2024-02-08T10:14:35.588Z,3.65
2024-02-08T10:17:29.930Z,3.69
2024-02-08T10:20:19.234Z,3.73
2024-02-08T10:23:01.426Z,3.74
2024-02-08T10:25:47.527Z,3.71
2024-02-08T10:28:26.040Z,3.69
2024-02-08T10:30:58.769Z,3.68
2024-02-08T10:33:26.253Z,3.69
2024-02-08T10:35:59.444Z,3.68
2024-02-08T10:38:33.829Z,3.66
2024-02-08T10:41:00.561Z,3.64
2024-02-08T10:43:27.474Z,3.65
2024-02-08T10:45:55.342Z,3.67
2024-02-08T10:48:23.730Z,3.70
2024-02-08T10:50:53.527Z,3.68
2024-02-08T10:53:44.943Z,3.65
2024-02-08T10:56:17.768Z,3.65
2024-02-08T10:59:11.098Z,3.62
2024-02-08T11:01:50.068Z,3.60
2024-02-08T11:04:20.022Z,3.53
2024-02-08T11:06:56.725Z,3.50
2024-02-08T11:09:28.306Z,3.49
2024-02-08T11:12:10.532Z,3.53
2024-02-08T11:14:44.504Z,3.59
2024-02-08T11:17:26.996Z,3.60
2024-02-08T11:19:59.256Z,3.58
2024-02-08T11:22:36.858Z,3.60
2024-02-08T11:25:20.746Z,3.55
2024-02-08T11:27:51.595Z,3.53
2024-02-08T11:30:20.886Z,3.50
2024-02-08T11:32:58.167Z,3.49
2024-02-08T11:35:31.311Z,3.48
2024-02-08T11:38:12.651Z,3.51
2024-02-08T11:40:39.735Z,3.49
2024-02-08T11:43:09.090Z,3.45
2024-02-08T11:45:42.651Z,3.43
2024-02-08T11:48:11.164Z,3.45
2024-02-08T11:50:38.027Z,3.45
2024-02-08T11:53:07.519Z,3.48
2024-02-08T11:55:34.865Z,3.56
2024-02-08T11:58:07.092Z,3.56
2024-02-08T12:00:50.058Z,3.51
2024-02-08T12:03:18.099Z,3.46
2024-02-08T12:05:53.150Z,3.40
2024-02-08T12:08:19.901Z,3.38
2024-02-08T12:10:52.205Z,3.43
2024-02-08T12:13:26.887Z,3.42
2024-02-08T12:15:58.237Z,3.34
2024-02-08T12:18:29.978Z,3.32
2024-02-08T12:20:59.209Z,3.36
2024-02-08T12:23:31.782Z,3.35
2024-02-08T12:26:02.945Z,3.31
2024-02-08T12:28:33.797Z,3.26
2024-02-08T12:31:01.347Z,3.23
2024-02-08T12:33:30.628Z,3.14
2024-02-08T12:35:59.477Z,3.08
2024-02-08T12:38:28.401Z,3.01
2024-02-08T12:41:02.472Z,2.95
2024-02-08T12:43:29.011Z,2.92
2024-02-08T12:45:56.080Z,2.92
2024-02-08T12:48:22.857Z,2.91
2024-02-08T12:50:54.412Z,2.84
2024-02-08T12:53:22.324Z,2.75
2024-02-08T12:55:49.244Z,2.66
2024-02-08T12:58:19.829Z,2.60
2024-02-08T13:01:05.887Z,2.57
2024-02-08T13:03:35.527Z,2.55
2024-02-08T13:06:12.882Z,2.55
2024-02-08T13:08:39.716Z,2.50
2024-02-08T13:11:06.140Z,2.47
2024-02-08T13:13:34.008Z,2.44
2024-02-08T13:16:10.958Z,2.45
2024-02-08T13:18:43.438Z,2.44
2024-02-08T13:21:10.542Z,2.47
2024-02-08T13:23:38.076Z,2.43
2024-02-08T13:26:13.277Z,2.41
2024-02-08T13:28:42.673Z,2.41
2024-02-08T13:31:10.262Z,2.39
2024-02-08T13:33:39.407Z,2.41
2024-02-08T13:36:10.278Z,2.42
2024-02-08T13:38:40.196Z,2.43
2024-02-08T13:41:11.282Z,2.41
2024-02-08T13:43:41.388Z,2.42
2024-02-08T13:46:11.820Z,2.46
2024-02-08T13:48:38.568Z,2.45
2024-02-08T13:51:08.550Z,2.42
2024-02-08T13:53:36.985Z,2.43
2024-02-08T13:56:06.882Z,2.42
2024-02-08T13:58:37.864Z,2.41
2024-02-08T14:01:05.833Z,2.40
2024-02-08T14:03:33.417Z,2.38
2024-02-08T14:06:02.137Z,2.38
2024-02-08T14:08:30.406Z,2.37
2024-02-08T14:10:59.623Z,2.34
2024-02-08T14:13:36.860Z,2.31
2024-02-08T14:16:16.099Z,2.30
2024-02-08T14:18:50.930Z,2.31
2024-02-08T14:21:21.808Z,2.27
2024-02-08T14:23:50.798Z,2.26
2024-02-08T14:26:20.398Z,2.26
2024-02-08T14:28:50.911Z,2.25
2024-02-08T14:31:18.322Z,2.25
2024-02-08T14:33:48.688Z,2.25
2024-02-08T14:36:19.143Z,2.28
2024-02-08T14:38:49.723Z,2.25
2024-02-08T14:41:34.874Z,2.22
2024-02-08T14:44:09.517Z,2.20
2024-02-08T14:46:40.768Z,2.15
2024-02-08T14:49:19.047Z,2.14
2024-02-08T14:51:49.609Z,2.13
2024-02-08T14:54:20.089Z,2.09
2024-02-08T14:57:05.205Z,2.06
2024-02-08T14:59:42.863Z,2.05
2024-02-08T15:02:19.707Z,2.07
2024-02-08T15:04:47.367Z,2.09
2024-02-08T15:07:34.209Z,2.08
2024-02-08T15:10:08.528Z,2.07
2024-02-08T15:12:54.602Z,2.07
2024-02-08T15:15:32.099Z,2.09
2024-02-08T15:18:12.425Z,2.10
2024-02-08T15:20:44.839Z,2.10
2024-02-08T15:23:33.455Z,2.07
2024-02-08T15:26:13.964Z,2.05
2024-02-08T15:28:46.616Z,2.03
2024-02-08T15:31:17.102Z,2.01
2024-02-08T15:34:19.960Z,2.02
2024-02-08T15:36:52.599Z,1.99
2024-02-08T15:39:37.475Z,1.98
2024-02-08T15:42:10.651Z,1.99
2024-02-08T15:44:48.637Z,1.98
2024-02-08T15:47:19.825Z,1.98
2024-02-08T15:49:46.824Z,1.96
2024-02-08T15:52:17.045Z,1.96
2024-02-08T15:54:45.960Z,1.95
2024-02-08T15:57:13.920Z,1.94
2024-02-08T15:59:46.200Z,1.94
2024-02-08T16:02:18.590Z,1.91
2024-02-08T16:04:47.133Z,1.91
2024-02-08T16:07:17.490Z,1.91
2024-02-08T16:09:50.346Z,1.92
2024-02-08T16:12:20.706Z,1.90
2024-02-08T16:14:51.561Z,1.87
2024-02-08T16:17:37.066Z,1.90
2024-02-08T16:20:07.729Z,1.87
2024-02-08T16:22:53.572Z,1.87
2024-02-08T16:25:40.917Z,1.90
2024-02-08T16:28:18.955Z,1.87
2024-02-08T16:30:59.040Z,1.88
2024-02-08T16:33:42.990Z,1.87
2024-02-08T16:36:27.525Z,1.87
2024-02-08T16:39:15.178Z,1.89
2024-02-08T16:42:00.640Z,1.89
2024-02-08T16:44:32.002Z,1.87
2024-02-08T16:47:00.973Z,1.87
2024-02-08T16:49:31.792Z,1.91
2024-02-08T16:52:05.349Z,1.87
2024-02-08T16:54:35.125Z,1.91
2024-02-08T16:57:07.893Z,1.93
2024-02-08T16:59:59.246Z,1.93
2024-02-08T17:02:26.064Z,1.95
2024-02-08T17:05:00.018Z,1.92
2024-02-08T17:07:47.111Z,1.91
2024-02-08T17:10:35.286Z,1.89
2024-02-08T17:13:12.284Z,1.90
2024-02-08T17:16:04.919Z,1.89
2024-02-08T17:18:46.460Z,1.90
2024-02-08T17:21:38.102Z,1.88
2024-02-08T17:24:09.416Z,1.90
2024-02-08T17:26:36.708Z,1.92
2024-02-08T17:29:20.457Z,1.93
2024-02-08T17:31:47.819Z,1.93
2024-02-08T17:34:16.251Z,1.93
2024-02-08T17:36:47.007Z,1.93
2024-02-08T17:39:36.510Z,1.92
2024-02-08T17:42:09.627Z,1.96
2024-02-08T17:44:38.966Z,1.96
2024-02-08T17:47:09.712Z,1.96
2024-02-08T17:49:37.487Z,1.96
2024-02-08T17:52:07.034Z,1.98
2024-02-08T17:54:45.831Z,1.99
2024-02-08T17:57:13.612Z,2.02
2024-02-08T17:59:44.706Z,2.01
2024-02-08T18:02:15.997Z,2.00
2024-02-08T18:04:43.397Z,1.99
2024-02-08T18:07:14.149Z,2.01
2024-02-08T18:09:45.663Z,2.01
2024-02-08T18:12:35.425Z,2.03
2024-02-08T18:15:23.114Z,2.02
2024-02-08T18:17:54.973Z,2.03
2024-02-08T18:20:22.618Z,2.04
2024-02-08T18:22:50.082Z,2.05
2024-02-08T18:25:30.377Z,2.07
2024-02-08T18:28:02.238Z,2.07
2024-02-08T18:30:30.747Z,2.09
2024-02-08T18:33:05.079Z,2.09
2024-02-08T18:35:35.817Z,2.12
2024-02-08T18:38:09.371Z,2.11
2024-02-08T18:40:40.046Z,2.14
2024-02-08T18:43:07.021Z,2.17
2024-02-08T18:45:38.644Z,2.22
2024-02-08T18:48:06.407Z,2.21
2024-02-08T18:50:34.097Z,2.21
2024-02-08T18:53:06.336Z,2.20
2024-02-08T18:55:46.923Z,2.20
2024-02-08T18:58:18.207Z,2.21
2024-02-08T19:00:47.763Z,2.21
2024-02-08T19:03:17.132Z,2.24
2024-02-08T19:05:49.463Z,2.23
2024-02-08T19:08:20.144Z,2.26
2024-02-08T19:10:53.961Z,2.30
2024-02-08T19:13:31.802Z,2.29
2024-02-08T19:16:01.574Z,2.29
2024-02-08T19:18:33.279Z,2.28
2024-02-08T19:21:01.396Z,2.31
2024-02-08T19:23:29.522Z,2.31
2024-02-08T19:25:59.423Z,2.32
2024-02-08T19:28:26.835Z,2.35
2024-02-08T19:30:53.731Z,2.35
2024-02-08T19:33:25.133Z,2.36
2024-02-08T19:35:55.746Z,2.38
2024-02-08T19:38:27.252Z,2.40
2024-02-08T19:40:57.241Z,2.39
2024-02-08T19:43:28.033Z,2.42
2024-02-08T19:45:55.026Z,2.41
2024-02-08T19:48:26.413Z,2.42
2024-02-08T19:50:54.080Z,2.44
2024-02-08T19:53:29.568Z,2.47
2024-02-08T19:55:56.815Z,2.47
2024-02-08T19:58:24.328Z,2.47
2024-02-08T20:00:54.061Z,2.49
2024-02-08T20:03:28.390Z,2.49
2024-02-08T20:05:56.118Z,2.53
2024-02-08T20:08:24.042Z,2.54
2024-02-08T20:10:51.743Z,2.54
2024-02-08T20:13:25.389Z,2.56
2024-02-08T20:15:54.812Z,2.58
2024-02-08T20:18:22.166Z,2.59
2024-02-08T20:20:49.035Z,2.61
2024-02-08T20:23:20.289Z,2.63
2024-02-08T20:25:49.965Z,2.65
2024-02-08T20:28:17.416Z,2.67
2024-02-08T20:30:55.280Z,2.71
2024-02-08T20:33:22.211Z,2.72
2024-02-08T20:35:50.342Z,2.73
2024-02-08T20:38:19.239Z,2.77
2024-02-08T20:40:47.249Z,2.78
2024-02-08T20:43:18.751Z,2.80
2024-02-08T20:45:50.657Z,2.81
2024-02-08T20:48:20.000Z,2.83
2024-02-08T20:50:48.132Z,2.85
2024-02-08T20:53:18.034Z,2.87
2024-02-08T20:55:46.372Z,2.88
2024-02-08T20:58:14.050Z,2.89
2024-02-08T21:00:44.313Z,2.92
2024-02-08T21:03:14.648Z,2.95
2024-02-08T21:05:43.186Z,2.97
2024-02-08T21:08:10.677Z,3.00
2024-02-08T21:10:40.641Z,3.04
2024-02-08T21:13:07.804Z,3.07
2024-02-08T21:15:34.334Z,3.09
2024-02-08T21:18:07.352Z,3.10
2024-02-08T21:20:36.350Z,3.11
2024-02-08T21:23:06.258Z,3.12
2024-02-08T21:25:33.737Z,3.13
2024-02-08T21:28:07.180Z,3.14
2024-02-08T21:30:35.510Z,3.16
2024-02-08T21:33:03.162Z,3.15
2024-02-08T21:35:29.732Z,3.18
2024-02-08T21:37:56.194Z,3.19
2024-02-08T21:40:23.819Z,3.21
2024-02-08T21:42:52.475Z,3.22
2024-02-08T21:45:19.740Z,3.25
2024-02-08T21:47:46.315Z,3.27
2024-02-08T21:50:13.088Z,3.29
2024-02-08T21:52:39.841Z,3.32
2024-02-08T21:55:08.281Z,3.34
2024-02-08T21:57:35.299Z,3.36
2024-02-08T22:00:02.214Z,3.38
2024-02-08T22:02:28.880Z,3.42
2024-02-08T22:04:55.546Z,3.43
2024-02-08T22:07:22.319Z,3.45
2024-02-08T22:09:52.797Z,3.47
2024-02-08T22:12:19.477Z,3.50
2024-02-08T22:14:46.170Z,3.53
2024-02-08T22:17:13.129Z,3.55
2024-02-08T22:19:44.675Z,3.60
2024-02-08T22:22:14.382Z,3.63
2024-02-08T22:24:41.770Z,3.65
2024-02-08T22:27:11.686Z,3.67
2024-02-08T22:29:39.693Z,3.69
2024-02-08T22:32:08.320Z,3.73
2024-02-08T22:34:35.309Z,3.73
2024-02-08T22:37:05.892Z,3.74
2024-02-08T22:39:32.795Z,3.78
2024-02-08T22:42:00.766Z,3.80
2024-02-08T22:44:28.779Z,3.81
2024-02-08T22:46:56.674Z,3.84
2024-02-08T22:49:26.030Z,3.87
2024-02-08T22:51:53.295Z,3.89
2024-02-08T22:54:21.821Z,3.91
2024-02-08T22:56:52.064Z,3.95
2024-02-08T22:59:21.903Z,3.97
2024-02-08T23:01:55.544Z,4.01
2024-02-08T23:04:23.315Z,4.05
2024-02-08T23:06:52.738Z,4.05
2024-02-08T23:09:19.479Z,4.08
2024-02-08T23:11:47.201Z,4.09
2024-02-08T23:14:19.504Z,4.12
2024-02-08T23:16:46.893Z,4.13
2024-02-08T23:19:14.741Z,4.16
2024-02-08T23:21:42.250Z,4.19
2024-02-08T23:24:09.008Z,4.22
2024-02-08T23:26:36.662Z,4.25
2024-02-08T23:29:03.981Z,4.25
2024-02-08T23:31:32.536Z,4.28
2024-02-08T23:34:04.556Z,4.31
2024-02-08T23:36:35.494Z,4.33
2024-02-08T23:39:05.736Z,4.36
2024-02-08T23:41:32.362Z,4.40
2024-02-08T23:43:59.021Z,4.42
2024-02-08T23:46:26.280Z,4.44
2024-02-08T23:48:58.261Z,4.47
2024-02-08T23:51:25.666Z,4.49
2024-02-08T23:53:52.714Z,4.53
2024-02-08T23:56:25.433Z,4.58
2024-02-08T23:58:53.175Z,4.60
